Leando, Iowa
Current Conditions -  °F | °C
As of 2:35 AM on Sunday 23 Nov 2014 (Local Time) from KFFL Reporting Station
Overcast Overcast  
Wind Chill: 52°   Ceiling: 700
Heat Index: 52°   Visibility: NA
Dew Point: 50°   Wind: 13mph
Humidity: 94%   Direction: 180°S
Pressure: 29.68"   Gusts: NA
Location:  40.8011°N, 92.0459°W
Report Text: KFFL 230835Z AUTO 18011KT OVC007 11/10 A2968 RMK AO2
Loading
Personal Weather Stations






























Interactive Weather Map New forecast layout! Learn more

10-Day Weather Forecast

Advertisements
Track Severe Weather on mobile